Airfield :
LOGIN :

Register | Disclaimer

   EN    FR    IT 

 










Legend :    VFR   Marginal VFR   IFR   Intensive IFR   Very Intensive IFR
Visi :
Ceiling :
>= 8 km
>= 3000ft
5 to 8 km
1000 to 3000 ft
1500m to 5 km
500 to 1000 ft
800 to 1500m
200 to 500 ft
< 800m
< 200 ft
Symbols :   Thunderstorms  Fog  Heavy snow  Heavy precipitations  Wind > 20 kt
SIGMETs :     Misc.  Thunderstorms  Icing  Turbulence  Mountain Waves  Volcanic Ashes







- Airport Elevation : 83 ft
- IATA code : LHR
- Download approach charts


EGLL - London Heathrow

CURRENT METAR :
  • 191650Z AUTO VRB03KT 9999 NCD 15/07 Q1022 NOSIG

EXPIRED METARs :
  • 191620Z AUTO 29006KT 240V320 9999 FEW040 16/07 Q1022
  • 191550Z AUTO 28006KT 9999 SCT041 16/07 Q1022 NOSIG
  • 191520Z AUTO 28007KT 250V330 9999 FEW046 15/07 Q1022 NOSIG
  • 191450Z AUTO 27007KT 240V320 9999 FEW035 BKN042 15/08 Q1022
  • 191420Z AUTO 27006KT 240V320 9999 BKN046 15/07 Q1022

TAF TAF EGLL
Valid from the 19 at 12:00 until the 20 at 18:00 UTC


191054Z 1912/2018 34004KT 9999 SCT030
PROB30 2003/2008 7000
BECMG 2009/2012 21010KT
No reported NOTAMs for that airfield.



MET'MAP, your aeronautical weather chart ! - Copyright ORBIFLY December 2007 - Disclaimer

ORBIFLY MET'MAP TEAM :

Programming & Development : Alexandra Zaïnal
Concept & Development : Baudouin d'Aumeries
Co-Development & Prog : Marc-Olivier Méhu
Technical & hardware support : Manuel Goepfert

Contact : metmap@orbifly.com




SOURCES & CREDITS :

   NOAA